createdAt,value
2023-05-19T00:01:01.884Z,10.50
2023-05-19T00:03:31.835Z,10.50
2023-05-19T00:06:03.505Z,10.50
2023-05-19T00:08:32.718Z,10.40
2023-05-19T00:11:01.519Z,10.40
2023-05-19T00:13:30.503Z,10.40
2023-05-19T00:15:59.010Z,10.30
2023-05-19T00:18:29.861Z,10.30
2023-05-19T00:20:57.959Z,10.30
2023-05-19T00:23:27.410Z,10.30
2023-05-19T00:25:55.524Z,10.30
2023-05-19T00:28:23.753Z,10.20
2023-05-19T00:30:52.222Z,10.20
2023-05-19T00:33:20.965Z,10.20
2023-05-19T00:35:49.244Z,10.20
2023-05-19T00:38:17.783Z,10.20
2023-05-19T00:40:47.298Z,10.20
2023-05-19T00:43:15.689Z,10.20
2023-05-19T00:45:43.831Z,10.10
2023-05-19T00:48:12.082Z,10.10
2023-05-19T00:50:41.520Z,10.10
2023-05-19T00:53:10.047Z,10.10
2023-05-19T00:55:40.518Z,10.10
2023-05-19T00:58:11.083Z,10.00
2023-05-19T01:00:39.932Z,10.00
2023-05-19T01:03:11.513Z,10.00
2023-05-19T01:05:44.791Z,10.00
2023-05-19T01:08:13.257Z,9.90
2023-05-19T01:10:42.488Z,9.90
2023-05-19T01:13:12.198Z,9.90
2023-05-19T01:15:53.808Z,9.80
2023-05-19T01:18:30.516Z,9.80
2023-05-19T01:21:13.903Z,9.80
2023-05-19T01:23:50.699Z,9.80
2023-05-19T01:26:44.723Z,9.70
2023-05-19T01:29:34.010Z,9.70
2023-05-19T01:32:05.772Z,9.60
2023-05-19T01:34:43.014Z,9.60
2023-05-19T01:37:12.378Z,9.60
2023-05-19T01:39:41.481Z,9.50
2023-05-19T01:42:10.672Z,9.50
2023-05-19T01:44:39.319Z,9.50
2023-05-19T01:47:09.419Z,9.50
2023-05-19T01:49:37.996Z,9.50
2023-05-19T01:52:06.691Z,9.50
2023-05-19T01:54:35.018Z,9.50
2023-05-19T01:57:12.795Z,9.40
2023-05-19T01:59:53.063Z,9.40
2023-05-19T02:02:42.049Z,9.40
2023-05-19T02:05:19.601Z,9.30
2023-05-19T02:07:58.418Z,9.30
2023-05-19T02:10:31.812Z,9.30
2023-05-19T02:13:05.398Z,9.20
2023-05-19T02:15:42.062Z,9.20
2023-05-19T02:18:12.624Z,9.10
2023-05-19T02:20:41.092Z,9.00
2023-05-19T02:23:09.324Z,8.90
2023-05-19T02:25:37.502Z,8.90
2023-05-19T02:28:07.460Z,8.90
2023-05-19T02:30:35.531Z,8.90
2023-05-19T02:33:06.426Z,8.80
2023-05-19T02:35:35.975Z,8.80
2023-05-19T02:38:04.043Z,8.80
2023-05-19T02:40:33.036Z,8.70
2023-05-19T02:43:01.741Z,8.70
2023-05-19T02:45:29.935Z,8.70
2023-05-19T02:48:00.323Z,8.60
2023-05-19T02:50:28.381Z,8.60
2023-05-19T02:52:57.891Z,8.50
2023-05-19T02:55:25.903Z,8.40
2023-05-19T02:57:53.963Z,8.40
2023-05-19T03:00:22.329Z,8.30
2023-05-19T03:02:52.951Z,8.20
2023-05-19T03:05:21.145Z,8.20
2023-05-19T03:07:49.233Z,8.10
2023-05-19T03:10:18.913Z,8.10
2023-05-19T03:12:46.995Z,8.00
2023-05-19T03:15:16.412Z,7.90
2023-05-19T03:17:44.555Z,7.90
2023-05-19T03:20:15.795Z,7.80
2023-05-19T03:22:43.981Z,7.70
2023-05-19T03:25:12.083Z,7.70
2023-05-19T03:27:41.800Z,7.60
2023-05-19T03:30:11.652Z,7.60
2023-05-19T03:32:52.781Z,7.50
2023-05-19T03:35:21.488Z,7.50
2023-05-19T03:37:49.587Z,7.40
2023-05-19T03:40:18.890Z,7.30
2023-05-19T03:42:48.607Z,7.30
2023-05-19T03:45:17.771Z,7.20
2023-05-19T03:47:48.240Z,7.20
2023-05-19T03:50:31.896Z,7.20
2023-05-19T03:53:13.818Z,7.20
2023-05-19T03:55:42.726Z,7.20
2023-05-19T03:58:14.607Z,7.20
2023-05-19T04:00:42.778Z,7.30
2023-05-19T04:03:10.968Z,7.30
2023-05-19T04:05:40.026Z,7.40
2023-05-19T04:08:08.149Z,7.40
2023-05-19T04:10:36.229Z,7.50
2023-05-19T04:13:04.383Z,7.60
2023-05-19T04:15:33.870Z,7.60
2023-05-19T04:18:02.014Z,7.70
2023-05-19T04:20:30.179Z,7.70
2023-05-19T04:22:58.427Z,7.80
2023-05-19T04:25:28.177Z,7.80
2023-05-19T04:27:57.747Z,7.90
2023-05-19T04:30:26.423Z,8.00
2023-05-19T04:32:58.123Z,8.00
2023-05-19T04:35:26.630Z,8.10
2023-05-19T04:37:55.667Z,8.10
2023-05-19T04:40:31.223Z,8.20
2023-05-19T04:43:02.273Z,8.20
2023-05-19T04:45:33.077Z,8.20
2023-05-19T04:48:04.415Z,8.30
2023-05-19T04:50:32.966Z,8.30
2023-05-19T04:53:01.816Z,8.30
2023-05-19T04:55:30.166Z,8.40
2023-05-19T04:57:59.368Z,8.50
2023-05-19T05:00:28.388Z,8.60
2023-05-19T05:03:00.625Z,8.70
2023-05-19T05:05:32.891Z,8.80
2023-05-19T05:08:02.072Z,8.90
2023-05-19T05:10:34.883Z,9.10
2023-05-19T05:13:03.647Z,9.20
2023-05-19T05:15:32.362Z,9.30
2023-05-19T05:18:03.279Z,9.50
2023-05-19T05:20:34.213Z,9.70
2023-05-19T05:23:03.163Z,10.00
2023-05-19T05:25:33.616Z,10.20
2023-05-19T05:28:05.350Z,10.40
2023-05-19T05:30:35.333Z,10.80
2023-05-19T05:33:04.251Z,11.10
2023-05-19T05:35:36.942Z,11.30
2023-05-19T05:38:06.815Z,11.50
2023-05-19T05:40:35.154Z,11.70
2023-05-19T05:43:04.869Z,11.90
2023-05-19T05:45:36.788Z,12.10
2023-05-19T05:48:05.714Z,12.20
2023-05-19T05:50:36.863Z,12.30
2023-05-19T05:53:07.707Z,12.40
2023-05-19T05:55:39.108Z,12.50
2023-05-19T05:58:11.426Z,12.60
2023-05-19T06:00:40.071Z,12.70
2023-05-19T06:03:09.921Z,12.90
2023-05-19T06:05:39.766Z,13.10
2023-05-19T06:08:07.985Z,13.30
2023-05-19T06:10:39.059Z,13.80
2023-05-19T06:13:09.573Z,14.20
2023-05-19T06:15:39.829Z,14.50
2023-05-19T06:18:18.344Z,15.00
2023-05-19T06:20:50.944Z,15.30
2023-05-19T06:23:19.537Z,15.40
2023-05-19T06:25:47.810Z,15.60
2023-05-19T06:28:16.046Z,15.90
2023-05-19T06:30:44.798Z,16.30
2023-05-19T06:33:22.499Z,16.60
2023-05-19T06:35:51.952Z,16.90
2023-05-19T06:38:21.828Z,17.10
2023-05-19T06:40:50.003Z,17.40
2023-05-19T06:43:18.195Z,17.60
2023-05-19T06:45:57.260Z,17.90
2023-05-19T06:48:27.294Z,18.20
2023-05-19T06:50:57.195Z,18.50
2023-05-19T06:53:26.171Z,18.90
2023-05-19T06:56:00.022Z,19.20
2023-05-19T06:58:32.641Z,19.40
2023-05-19T07:01:03.106Z,19.50
2023-05-19T07:03:36.682Z,19.50
2023-05-19T07:06:08.357Z,19.50
2023-05-19T07:08:37.860Z,19.60
2023-05-19T07:11:07.993Z,19.50
2023-05-19T07:13:36.292Z,19.40
2023-05-19T07:16:05.709Z,19.30
2023-05-19T07:18:35.480Z,19.20
2023-05-19T07:21:03.568Z,19.30
2023-05-19T07:23:34.076Z,19.40
2023-05-19T07:26:02.544Z,19.50
2023-05-19T07:28:30.760Z,19.70
2023-05-19T07:30:59.073Z,19.80
2023-05-19T07:33:27.726Z,19.70
2023-05-19T07:35:56.280Z,19.70
2023-05-19T07:38:24.421Z,19.60
2023-05-19T07:40:53.896Z,19.20
2023-05-19T07:43:22.018Z,19.20
2023-05-19T07:45:50.231Z,19.20
2023-05-19T07:48:18.915Z,19.10
2023-05-19T07:50:47.291Z,19.20
2023-05-19T07:53:15.580Z,19.30
2023-05-19T07:55:43.854Z,19.00
2023-05-19T07:58:13.511Z,18.90
2023-05-19T08:00:43.165Z,18.90
2023-05-19T08:03:11.600Z,18.90
2023-05-19T08:05:40.046Z,19.00
2023-05-19T08:08:08.363Z,19.10
2023-05-19T08:10:36.517Z,19.00
2023-05-19T08:13:05.284Z,19.10
2023-05-19T08:15:34.954Z,19.30
2023-05-19T08:18:03.215Z,19.30
2023-05-19T08:20:31.669Z,19.20
2023-05-19T08:22:59.997Z,18.90
2023-05-19T08:25:28.624Z,18.60
2023-05-19T08:27:56.713Z,18.70
2023-05-19T08:30:25.642Z,18.60
2023-05-19T08:32:55.319Z,18.50
2023-05-19T08:35:23.620Z,18.40
2023-05-19T08:37:51.765Z,18.40
2023-05-19T08:40:20.056Z,18.60
2023-05-19T08:42:48.954Z,19.10
2023-05-19T08:45:18.841Z,19.60
2023-05-19T08:47:47.996Z,20.10
2023-05-19T08:50:22.832Z,20.70
2023-05-19T08:52:54.080Z,21.40
2023-05-19T08:55:34.519Z,21.80
2023-05-19T08:58:04.569Z,21.80
2023-05-19T09:00:34.001Z,22.00
2023-05-19T09:03:17.396Z,21.60
2023-05-19T09:05:48.092Z,21.60
2023-05-19T09:08:16.671Z,21.70
2023-05-19T09:10:44.944Z,21.70
2023-05-19T09:13:13.096Z,21.90
2023-05-19T09:15:43.579Z,21.90
2023-05-19T09:18:13.041Z,21.90
2023-05-19T09:20:42.661Z,22.00
2023-05-19T09:23:16.532Z,22.10
2023-05-19T09:25:49.719Z,22.40
2023-05-19T09:28:25.411Z,22.30
2023-05-19T09:31:01.502Z,22.40
2023-05-19T09:33:31.369Z,22.40
2023-05-19T09:35:59.701Z,22.30
2023-05-19T09:38:29.479Z,22.40
2023-05-19T09:40:59.612Z,22.60
2023-05-19T09:43:29.146Z,22.60
2023-05-19T09:46:01.399Z,22.80
2023-05-19T09:48:30.495Z,22.30
2023-05-19T09:50:59.218Z,22.20
2023-05-19T09:53:32.621Z,22.40
2023-05-19T09:56:03.694Z,22.50
2023-05-19T09:58:35.331Z,22.30
2023-05-19T10:01:05.130Z,21.80
2023-05-19T10:03:34.606Z,21.70
2023-05-19T10:06:05.032Z,21.70
2023-05-19T10:08:36.026Z,21.80
2023-05-19T10:11:04.861Z,21.90
2023-05-19T10:13:36.268Z,22.20
2023-05-19T10:16:04.736Z,21.90
2023-05-19T10:18:37.463Z,22.10
2023-05-19T10:21:08.893Z,21.70
2023-05-19T10:23:38.564Z,21.40
2023-05-19T10:26:07.703Z,21.30
2023-05-19T10:28:39.042Z,21.50
2023-05-19T10:31:11.006Z,21.70
2023-05-19T10:33:57.935Z,21.90
2023-05-19T10:36:40.097Z,21.90
2023-05-19T10:39:17.747Z,21.80
2023-05-19T10:42:00.544Z,22.10
2023-05-19T10:44:41.682Z,22.40
2023-05-19T10:47:11.995Z,22.70
2023-05-19T10:49:41.139Z,23.00
2023-05-19T10:52:21.800Z,23.30
2023-05-19T10:54:51.494Z,23.70
2023-05-19T10:57:21.728Z,23.80
2023-05-19T10:59:50.009Z,23.60
2023-05-19T11:02:41.379Z,23.30
2023-05-19T11:05:10.694Z,22.40
2023-05-19T11:07:42.413Z,22.30
2023-05-19T11:10:12.706Z,22.20
2023-05-19T11:12:46.115Z,21.80
2023-05-19T11:15:15.983Z,21.40
2023-05-19T11:17:48.450Z,21.60
2023-05-19T11:20:23.778Z,21.70
2023-05-19T11:23:08.412Z,21.80
2023-05-19T11:25:49.297Z,21.70
2023-05-19T11:28:19.529Z,21.70
2023-05-19T11:30:50.733Z,21.70
2023-05-19T11:33:20.366Z,21.80
2023-05-19T11:35:51.208Z,22.00
2023-05-19T11:38:20.479Z,21.80
2023-05-19T11:40:50.312Z,22.00
2023-05-19T11:43:18.378Z,21.60
2023-05-19T11:45:46.941Z,20.80
2023-05-19T11:48:17.408Z,20.90
2023-05-19T11:50:46.801Z,21.00
2023-05-19T11:53:15.279Z,21.20
2023-05-19T11:55:44.673Z,21.20
2023-05-19T11:58:15.860Z,21.10
2023-05-19T12:00:47.713Z,21.30
2023-05-19T12:03:17.413Z,21.60
2023-05-19T12:05:49.368Z,21.70
2023-05-19T12:08:18.725Z,21.50
2023-05-19T12:10:50.426Z,21.30
2023-05-19T12:13:22.599Z,21.20
2023-05-19T12:15:52.258Z,20.90
2023-05-19T12:18:20.780Z,20.80
2023-05-19T12:20:49.141Z,20.70
2023-05-19T12:23:17.376Z,20.80
2023-05-19T12:25:45.557Z,20.80
2023-05-19T12:28:13.663Z,20.70
2023-05-19T12:30:49.048Z,20.60
2023-05-19T12:33:17.162Z,20.60
2023-05-19T12:35:46.201Z,20.50
2023-05-19T12:38:15.855Z,20.50
2023-05-19T12:40:45.041Z,20.40
2023-05-19T12:43:21.171Z,20.40
2023-05-19T12:45:50.704Z,20.70
2023-05-19T12:48:22.565Z,21.00
2023-05-19T12:50:53.290Z,21.20
2023-05-19T12:53:22.549Z,21.50
2023-05-19T12:55:54.399Z,21.10
2023-05-19T12:58:23.327Z,20.90
2023-05-19T13:01:00.010Z,20.70
2023-05-19T13:03:28.400Z,20.80
2023-05-19T13:05:56.733Z,20.70
2023-05-19T13:08:25.661Z,20.60
2023-05-19T13:10:54.407Z,20.30
2023-05-19T13:13:22.688Z,20.10
2023-05-19T13:15:52.170Z,19.90
2023-05-19T13:18:20.274Z,19.90
2023-05-19T13:20:50.210Z,19.90
2023-05-19T13:23:18.741Z,19.60
2023-05-19T13:25:47.079Z,19.50
2023-05-19T13:28:15.343Z,19.50
2023-05-19T13:30:45.688Z,19.40
2023-05-19T13:33:15.304Z,19.30
2023-05-19T13:35:43.619Z,19.20
2023-05-19T13:38:12.000Z,19.20
2023-05-19T13:40:40.629Z,19.20
2023-05-19T13:43:09.828Z,19.20
2023-05-19T13:45:38.622Z,19.20
2023-05-19T13:48:08.204Z,19.30
2023-05-19T13:50:37.829Z,19.30
2023-05-19T13:53:06.084Z,19.20
2023-05-19T13:55:34.839Z,19.30
2023-05-19T13:58:03.497Z,19.10
2023-05-19T14:00:33.444Z,19.10
2023-05-19T14:03:01.849Z,18.70
2023-05-19T14:05:31.258Z,18.50
2023-05-19T14:08:01.352Z,18.40
2023-05-19T14:10:29.732Z,18.20
2023-05-19T14:15:38.086Z,18.30
2023-05-19T14:18:07.397Z,18.10
2023-05-19T14:20:36.065Z,18.00
2023-05-19T14:23:05.906Z,17.80
2023-05-19T14:25:34.075Z,17.80
2023-05-19T14:28:02.696Z,17.90
2023-05-19T14:30:30.998Z,17.70
2023-05-19T14:32:59.117Z,17.70
2023-05-19T14:35:27.399Z,17.60
2023-05-19T14:37:55.584Z,17.40
2023-05-19T14:40:25.094Z,17.30
2023-05-19T14:42:53.252Z,17.30
2023-05-19T14:45:21.417Z,17.20
2023-05-19T14:47:49.638Z,17.20
2023-05-19T14:50:18.172Z,17.20
2023-05-19T14:52:46.233Z,17.20
2023-05-19T14:55:14.404Z,17.20
2023-05-19T14:57:43.842Z,17.10
2023-05-19T15:00:12.810Z,17.10
2023-05-19T15:02:41.091Z,17.10
2023-05-19T15:05:09.963Z,17.00
2023-05-19T15:07:38.077Z,16.90
2023-05-19T15:10:07.323Z,16.70
2023-05-19T15:12:35.446Z,16.60
2023-05-19T15:15:05.670Z,16.40
2023-05-19T15:17:33.819Z,16.30
2023-05-19T15:20:02.476Z,16.40
2023-05-19T15:22:30.677Z,16.40
2023-05-19T15:24:59.357Z,16.10
2023-05-19T15:27:27.594Z,16.00
2023-05-19T15:29:56.222Z,15.90
2023-05-19T15:32:25.643Z,15.90
2023-05-19T15:34:53.900Z,15.90
2023-05-19T15:37:21.953Z,15.90
2023-05-19T15:39:50.169Z,15.70
2023-05-19T15:42:18.159Z,15.70
2023-05-19T15:44:47.029Z,15.70
2023-05-19T15:47:15.094Z,15.80
2023-05-19T15:49:44.580Z,15.80
2023-05-19T15:52:12.704Z,15.70
2023-05-19T15:54:40.962Z,15.60
2023-05-19T15:57:09.324Z,15.60
2023-05-19T15:59:37.505Z,15.60
2023-05-19T16:02:05.900Z,15.50
2023-05-19T16:04:34.435Z,15.40
2023-05-19T16:07:03.794Z,15.30
2023-05-19T16:09:31.833Z,15.30
2023-05-19T16:12:00.056Z,15.30
2023-05-19T16:14:31.054Z,15.30
2023-05-19T16:16:59.850Z,15.30
2023-05-19T16:19:27.994Z,15.30
2023-05-19T16:21:56.146Z,15.20
2023-05-19T16:24:25.637Z,15.10
2023-05-19T16:26:54.027Z,15.10
2023-05-19T16:29:22.364Z,15.00
2023-05-19T16:31:50.527Z,15.10
2023-05-19T16:34:19.798Z,15.20
2023-05-19T16:36:47.877Z,15.10
2023-05-19T16:39:15.987Z,15.20
2023-05-19T16:41:45.564Z,15.30
2023-05-19T16:44:14.644Z,15.30
2023-05-19T16:46:42.941Z,15.30
2023-05-19T16:49:11.224Z,15.40
2023-05-19T16:51:39.508Z,15.30
2023-05-19T16:54:07.703Z,15.10
2023-05-19T16:56:36.056Z,15.10
2023-05-19T16:59:05.704Z,15.10
2023-05-19T17:01:34.125Z,15.10
2023-05-19T17:04:02.236Z,15.10
2023-05-19T17:06:31.217Z,15.20
2023-05-19T17:08:59.301Z,15.20
2023-05-19T17:11:27.884Z,15.20
2023-05-19T17:13:57.054Z,15.10
2023-05-19T17:16:26.726Z,15.10
2023-05-19T17:18:54.865Z,15.20
2023-05-19T17:21:22.847Z,15.30
2023-05-19T17:23:51.311Z,15.30
2023-05-19T17:26:19.450Z,15.40
2023-05-19T17:28:48.786Z,15.30
2023-05-19T17:31:17.007Z,15.30
2023-05-19T17:33:46.542Z,15.30
2023-05-19T17:36:15.557Z,15.20
2023-05-19T17:38:44.077Z,15.30
2023-05-19T17:41:14.828Z,15.20
2023-05-19T17:43:43.406Z,15.30
2023-05-19T17:46:11.800Z,15.20
2023-05-19T17:48:40.713Z,15.20
2023-05-19T17:51:10.233Z,15.10
2023-05-19T17:53:39.034Z,15.00
2023-05-19T17:56:10.108Z,15.00
2023-05-19T17:58:39.454Z,15.00
2023-05-19T18:01:08.058Z,15.00
2023-05-19T18:03:36.853Z,15.00
2023-05-19T18:06:06.035Z,15.10
2023-05-19T18:08:37.637Z,15.10
2023-05-19T18:11:05.848Z,15.00
2023-05-19T18:13:33.927Z,15.00
2023-05-19T18:16:01.964Z,15.00
2023-05-19T18:18:30.135Z,15.00
2023-05-19T18:20:58.239Z,14.90
2023-05-19T18:23:26.380Z,14.90
2023-05-19T18:25:55.826Z,14.90
2023-05-19T18:28:24.930Z,14.90
2023-05-19T18:31:00.411Z,14.90
2023-05-19T18:33:30.039Z,14.80
2023-05-19T18:35:59.304Z,14.80
2023-05-19T18:38:27.525Z,14.80
2023-05-19T18:40:57.726Z,14.80
2023-05-19T18:43:26.006Z,14.80
2023-05-19T18:45:54.133Z,14.70
2023-05-19T18:48:22.725Z,14.60
2023-05-19T18:50:50.924Z,14.60
2023-05-19T18:53:19.030Z,14.50
2023-05-19T18:55:47.106Z,14.50
2023-05-19T18:58:16.495Z,14.40
2023-05-19T19:00:44.666Z,14.30
2023-05-19T19:03:13.260Z,14.30
2023-05-19T19:05:41.251Z,14.20
2023-05-19T19:08:09.301Z,14.10
2023-05-19T19:10:40.287Z,14.10
2023-05-19T19:13:08.388Z,14.10
2023-05-19T19:15:39.657Z,14.00
2023-05-19T19:18:08.361Z,13.90
2023-05-19T19:20:36.601Z,13.90
2023-05-19T19:23:06.672Z,14.00
2023-05-19T19:25:35.024Z,14.00
2023-05-19T19:28:03.646Z,13.90
2023-05-19T19:30:32.470Z,13.80
2023-05-19T19:33:03.101Z,13.90
2023-05-19T19:35:32.811Z,13.90
2023-05-19T19:38:00.894Z,14.00
2023-05-19T19:40:29.354Z,13.90
2023-05-19T19:42:57.657Z,13.90
2023-05-19T19:45:25.775Z,13.90
2023-05-19T19:47:54.094Z,13.90
2023-05-19T19:50:23.733Z,14.00
2023-05-19T19:52:51.934Z,14.00
2023-05-19T19:55:20.074Z,14.00
2023-05-19T19:57:49.574Z,14.00
2023-05-19T20:00:18.630Z,14.00
2023-05-19T20:03:03.829Z,14.00
2023-05-19T20:05:34.386Z,14.00
2023-05-19T20:08:02.491Z,14.00
2023-05-19T20:10:31.040Z,14.00
2023-05-19T20:12:59.513Z,14.00
2023-05-19T20:15:27.678Z,14.00
2023-05-19T20:17:55.753Z,13.90
2023-05-19T20:20:23.926Z,13.90
2023-05-19T20:22:53.416Z,13.90
2023-05-19T20:25:21.810Z,13.90
2023-05-19T20:27:49.899Z,13.90
2023-05-19T20:30:18.188Z,13.80
2023-05-19T20:32:47.058Z,13.90
2023-05-19T20:35:15.523Z,13.80
2023-05-19T20:37:43.668Z,13.70
2023-05-19T20:40:13.737Z,13.60
2023-05-19T20:42:41.917Z,13.70
2023-05-19T20:45:10.618Z,13.70
2023-05-19T20:47:38.961Z,13.60
2023-05-19T20:50:08.305Z,13.50
2023-05-19T20:52:37.090Z,13.50
2023-05-19T20:55:05.699Z,13.50
2023-05-19T20:57:35.870Z,13.40
2023-05-19T21:00:04.311Z,13.50
2023-05-19T21:02:32.654Z,13.50
2023-05-19T21:05:01.096Z,13.50
2023-05-19T21:07:29.178Z,13.60
2023-05-19T21:09:57.850Z,13.60
2023-05-19T21:12:28.678Z,13.50
2023-05-19T21:14:58.133Z,13.50
2023-05-19T21:17:26.207Z,13.50
2023-05-19T21:19:57.746Z,13.60
2023-05-19T21:22:26.121Z,13.60
2023-05-19T21:24:54.411Z,13.50
2023-05-19T21:27:22.755Z,13.40
2023-05-19T21:29:53.299Z,13.40
2023-05-19T21:32:23.667Z,13.50
2023-05-19T21:34:51.796Z,13.50
2023-05-19T21:37:21.094Z,13.50
2023-05-19T21:39:49.372Z,13.50
2023-05-19T21:42:17.544Z,13.50
2023-05-19T21:44:46.929Z,13.50
2023-05-19T21:47:15.080Z,13.40
2023-05-19T21:49:44.639Z,13.40
2023-05-19T21:52:12.751Z,13.40
2023-05-19T21:54:40.813Z,13.40
2023-05-19T21:57:11.088Z,13.40
2023-05-19T21:59:39.274Z,13.50
2023-05-19T22:02:07.617Z,13.50
2023-05-19T22:04:37.073Z,13.40
2023-05-19T22:07:06.903Z,13.40
2023-05-19T22:09:35.080Z,13.40
2023-05-19T22:12:03.168Z,13.30
2023-05-19T22:14:31.276Z,13.30
2023-05-19T22:16:59.318Z,13.20
2023-05-19T22:19:27.934Z,13.20
2023-05-19T22:22:09.666Z,13.10
2023-05-19T22:24:42.624Z,13.10
2023-05-19T22:27:11.047Z,13.10
2023-05-19T22:29:39.370Z,12.90
2023-05-19T22:32:12.254Z,12.90
2023-05-19T22:34:40.823Z,12.80
2023-05-19T22:37:09.024Z,12.80
2023-05-19T22:39:37.649Z,12.90
2023-05-19T22:42:07.415Z,12.90
2023-05-19T22:44:36.155Z,12.90
2023-05-19T22:47:04.673Z,12.90
2023-05-19T22:49:32.726Z,12.80
2023-05-19T22:52:00.962Z,12.80
2023-05-19T22:54:29.022Z,12.80
2023-05-19T22:56:57.121Z,12.80
2023-05-19T22:59:26.614Z,12.80
2023-05-19T23:01:54.799Z,12.70
2023-05-19T23:04:23.280Z,12.70
2023-05-19T23:06:51.868Z,12.80
2023-05-19T23:09:20.143Z,12.90
2023-05-19T23:11:48.557Z,12.80
2023-05-19T23:14:18.540Z,12.80
2023-05-19T23:16:48.089Z,12.90
2023-05-19T23:19:17.120Z,12.90
2023-05-19T23:21:45.995Z,13.00
2023-05-19T23:24:14.176Z,13.00
2023-05-19T23:26:43.893Z,12.90
2023-05-19T23:29:13.415Z,12.80
2023-05-19T23:31:41.949Z,12.90
2023-05-19T23:34:11.606Z,12.90
2023-05-19T23:36:39.772Z,12.90
2023-05-19T23:39:07.998Z,12.80
2023-05-19T23:41:36.958Z,12.90
2023-05-19T23:44:05.239Z,12.90
2023-05-19T23:46:33.432Z,12.90
2023-05-19T23:49:01.801Z,12.90
2023-05-19T23:51:31.323Z,12.90
2023-05-19T23:53:59.839Z,12.80
2023-05-19T23:56:28.107Z,12.80
2023-05-19T23:58:56.193Z,12.60
